Time;durP1;ratioP1;P1;durP2;ratioP2;P2;SDS_P1;SDS_P2;PMS_P1;PMS_P2;Temp;Humidity;BMP_temperature;BMP_pressure;BME280_temperature;BME280_humidity;BME280_pressure;Samples;Min_cycle;Max_cycle;Signal;HPM_P1;HPM_P2
2024/02/18 00:00:35;;;;;;;9.32;5.82;;;;;;;-0.13;82.14;98807.69;4992863;28;20077;-61
2024/02/18 00:03:01;;;;;;;10.45;6.18;;;;;;;-0.03;82.35;98796.97;4991739;28;20105;-60
2024/02/18 00:05:26;;;;;;;12.25;6.30;;;;;;;0.06;81.63;98798.50;4992817;28;20070;-62
2024/02/18 00:07:52;;;;;;;9.65;5.45;;;;;;;0.02;81.38;98799.84;4992487;28;20379;-61
2024/02/18 00:10:17;;;;;;;10.90;6.22;;;;;;;-0.01;81.71;98808.03;5007747;28;20054;-61
2024/02/18 00:12:44;;;;;;;10.13;6.10;;;;;;;0.04;82.02;98800.47;4991528;28;20050;-62
2024/02/18 00:15:10;;;;;;;12.07;6.25;;;;;;;0.07;82.04;98792.28;5008089;28;20038;-62
2024/02/18 00:17:35;;;;;;;13.32;5.65;;;;;;;0.05;81.08;98794.28;5007817;28;20104;-61
2024/02/18 00:20:01;;;;;;;10.88;5.78;;;;;;;0.08;81.93;98783.47;4992836;28;20411;-61
2024/02/18 00:22:28;;;;;;;11.98;6.10;;;;;;;-0.02;81.25;98783.78;4992698;28;20054;-62
2024/02/18 00:24:53;;;;;;;10.02;5.90;;;;;;;0.05;81.66;98786.44;4991254;28;20491;-62
2024/02/18 00:27:19;;;;;;;11.10;5.90;;;;;;;-0.17;81.37;98780.41;4991307;28;20073;-59
2024/02/18 00:29:44;;;;;;;11.10;6.30;;;;;;;-0.13;82.41;98775.63;4991147;28;20416;-62
2024/02/18 00:32:10;;;;;;;11.30;6.32;;;;;;;-0.28;82.56;98771.25;4990764;28;20053;-62
2024/02/18 00:34:36;;;;;;;10.07;6.72;;;;;;;-0.24;82.91;98775.13;4992423;28;20042;-63
2024/02/18 00:37:02;;;;;;;9.93;6.25;;;;;;;-0.17;82.58;98772.59;4990951;28;20046;-61
2024/02/18 00:39:27;;;;;;;10.77;6.32;;;;;;;-0.20;82.78;98766.94;4992626;28;20160;-62
2024/02/18 00:41:53;;;;;;;10.07;5.97;;;;;;;-0.11;82.38;98763.25;4991982;28;20034;-60
2024/02/18 00:44:23;;;;;;;10.23;5.70;;;;;;;-0.08;82.37;98765.47;4992478;28;20066;-63
2024/02/18 00:46:51;;;;;;;11.00;6.17;;;;;;;-0.06;82.45;98766.09;4992035;28;20567;-61
2024/02/18 00:49:17;;;;;;;10.32;5.70;;;;;;;-0.02;81.69;98759.53;4990907;28;20352;-60
2024/02/18 00:51:44;;;;;;;12.90;5.82;;;;;;;-0.21;82.35;98754.91;4992184;28;20088;-63
2024/02/18 00:54:09;;;;;;;11.23;5.95;;;;;;;-0.18;82.81;98754.53;4992543;28;20053;-60
2024/02/18 00:56:35;;;;;;;10.73;5.68;;;;;;;-0.04;83.33;98758.91;4992050;28;20448;-60
2024/02/18 00:59:00;;;;;;;12.45;5.85;;;;;;;-0.07;81.80;98747.03;4991779;28;20089;-61
2024/02/18 01:01:26;;;;;;;12.73;6.35;;;;;;;-0.07;82.18;98739.22;4992184;28;20050;-62
2024/02/18 01:03:52;;;;;;;11.88;6.32;;;;;;;-0.09;82.33;98741.22;4992263;28;20481;-61
2024/02/18 01:06:17;;;;;;;10.18;5.38;;;;;;;-0.06;82.43;98742.63;5007143;28;20038;-61
2024/02/18 01:08:43;;;;;;;11.57;6.22;;;;;;;-0.18;82.79;98733.69;4992105;28;20074;-61
2024/02/18 01:11:09;;;;;;;9.25;5.38;;;;;;;-0.18;82.38;98728.47;4990714;28;20057;-61
2024/02/18 01:13:35;;;;;;;10.35;6.15;;;;;;;-0.11;82.90;98735.38;4990708;28;20053;-62
2024/02/18 01:16:00;;;;;;;9.95;5.88;;;;;;;-0.18;82.66;98736.28;4991947;28;20516;-60
2024/02/18 01:18:26;;;;;;;10.02;6.03;;;;;;;-0.09;83.16;98735.19;4992178;28;20046;-62
2024/02/18 01:20:52;;;;;;;13.15;6.18;;;;;;;-0.08;83.02;98724.59;4993998;28;20077;-62
2024/02/18 01:23:17;;;;;;;11.32;6.10;;;;;;;0.06;83.28;98730.75;4995949;28;20050;-61
2024/02/18 01:25:43;;;;;;;8.57;5.50;;;;;;;0.07;82.00;98731.56;5010849;28;20045;-62
2024/02/18 01:28:08;;;;;;;10.00;5.13;;;;;;;-0.07;82.16;98723.59;4995985;28;20113;-62
2024/02/18 01:30:34;;;;;;;6.90;5.10;;;;;;;-0.14;82.88;98729.75;4994402;28;20049;-64
2024/02/18 01:33:00;;;;;;;10.20;5.63;;;;;;;-0.15;82.82;98713.28;4995761;28;20058;-61
2024/02/18 01:35:25;;;;;;;10.15;6.10;;;;;;;-0.21;82.74;98723.63;4995681;28;20181;-61
2024/02/18 01:37:51;;;;;;;12.43;6.90;;;;;;;-0.08;84.17;98718.59;4995732;28;20144;-60
2024/02/18 01:40:16;;;;;;;8.80;5.50;;;;;;;-0.11;83.15;98721.56;4995830;28;20070;-60
2024/02/18 01:42:43;;;;;;;9.50;5.80;;;;;;;-0.09;83.29;98715.19;4995722;28;20449;-61
2024/02/18 01:45:12;;;;;;;8.75;5.15;;;;;;;-0.06;82.86;98711.38;4995467;28;20038;-63
2024/02/18 01:47:41;;;;;;;11.50;5.43;;;;;;;-0.10;83.58;98712.75;4995595;28;20050;-61
2024/02/18 01:50:10;;;;;;;11.15;6.03;;;;;;;-0.10;83.25;98715.34;4994206;28;20046;-61
2024/02/18 01:52:37;;;;;;;10.43;5.80;;;;;;;-0.05;83.47;98711.19;4978074;28;20058;-60
2024/02/18 01:55:05;;;;;;;10.65;5.95;;;;;;;0.00;83.42;98708.06;4993947;28;20069;-61
2024/02/18 01:57:31;;;;;;;10.73;6.18;;;;;;;0.04;84.19;98704.06;4977831;28;20051;-62
2024/02/18 01:59:59;;;;;;;9.57;5.30;;;;;;;0.02;82.79;98687.81;4994165;28;20492;-61
2024/02/18 02:02:25;;;;;;;12.05;6.45;;;;;;;0.04;82.86;98704.06;4995160;28;20133;-61
2024/02/18 02:04:51;;;;;;;8.95;5.18;;;;;;;0.05;83.26;98686.63;4994147;28;20057;-61
2024/02/18 02:07:19;;;;;;;10.13;5.65;;;;;;;0.13;83.33;98700.34;4993829;28;20125;-62
2024/02/18 02:09:45;;;;;;;9.32;5.22;;;;;;;0.21;83.40;98689.00;4994825;28;20555;-62
2024/02/18 02:12:12;;;;;;;12.15;5.68;;;;;;;0.25;83.97;98690.22;4993531;28;20061;-59
2024/02/18 02:14:38;;;;;;;10.43;5.28;;;;;;;0.31;83.11;98693.88;4994808;28;20039;-62
2024/02/18 02:17:04;;;;;;;7.60;5.03;;;;;;;0.44;83.33;98696.56;4993448;28;20073;-62
2024/02/18 02:19:30;;;;;;;8.15;4.93;;;;;;;0.41;82.50;98691.72;4993525;28;20074;-61
2024/02/18 02:21:55;;;;;;;8.73;4.95;;;;;;;0.44;83.32;98694.78;5009606;28;20050;-61
2024/02/18 02:24:21;;;;;;;9.82;5.13;;;;;;;0.50;83.01;98688.03;4994472;28;20108;-62
2024/02/18 02:26:49;;;;;;;8.27;4.60;;;;;;;0.55;82.73;98690.84;4993070;28;20045;-62
2024/02/18 02:29:15;;;;;;;8.68;5.03;;;;;;;0.58;82.95;98684.44;4994666;28;20042;-62
2024/02/18 02:31:44;;;;;;;9.35;4.97;;;;;;;0.48;81.58;98683.97;4993014;28;20497;-60
2024/02/18 02:34:15;;;;;;;8.15;4.70;;;;;;;0.33;82.19;98686.69;4995066;28;20050;-62
2024/02/18 02:36:41;;;;;;;9.93;4.90;;;;;;;0.36;82.42;98691.50;4994523;28;20050;-60
2024/02/18 02:39:13;;;;;;;8.10;4.88;;;;;;;0.32;82.74;98678.03;4994994;28;20046;-61
2024/02/18 02:41:39;;;;;;;8.25;4.65;;;;;;;0.38;82.68;98690.34;4993099;28;20129;-61
2024/02/18 02:44:04;;;;;;;8.95;5.18;;;;;;;0.33;82.30;98682.25;4993203;28;20150;-61
2024/02/18 02:46:30;;;;;;;7.57;4.68;;;;;;;0.38;83.29;98681.69;4993089;28;20047;-61
2024/02/18 02:48:56;;;;;;;7.35;4.68;;;;;;;0.45;83.52;98682.56;4993058;28;20057;-60
2024/02/18 02:51:22;;;;;;;7.88;4.95;;;;;;;0.47;83.00;98690.19;4994445;28;20052;-61
2024/02/18 02:53:48;;;;;;;7.57;4.68;;;;;;;0.48;82.41;98684.78;4993058;28;20480;-60
2024/02/18 02:56:13;;;;;;;8.15;5.32;;;;;;;0.51;82.67;98679.19;4994139;28;20042;-61
2024/02/18 02:58:39;;;;;;;6.93;4.55;;;;;;;0.51;82.35;98683.59;4994529;28;20293;-60
2024/02/18 03:01:05;;;;;;;7.30;4.28;;;;;;;0.46;82.75;98689.38;4993975;28;20053;-62
2024/02/18 03:03:31;;;;;;;10.75;5.20;;;;;;;0.49;82.96;98672.56;4992810;28;20142;-60
2024/02/18 03:05:57;;;;;;;8.88;4.75;;;;;;;0.48;82.86;98676.16;4994319;28;20125;-62
2024/02/18 03:08:23;;;;;;;7.50;4.80;;;;;;;0.54;83.17;98678.81;4992644;28;20519;-60
2024/02/18 03:10:48;;;;;;;7.72;4.50;;;;;;;0.59;82.26;98673.00;4993705;28;20068;-60
2024/02/18 03:13:14;;;;;;;5.38;3.92;;;;;;;0.60;82.49;98687.69;4993967;28;20054;-60
2024/02/18 03:15:40;;;;;;;7.13;4.10;;;;;;;0.66;82.89;98674.69;4992445;28;20038;-62
2024/02/18 03:18:05;;;;;;;6.60;4.18;;;;;;;0.65;82.31;98678.28;4976187;28;20097;-60
2024/02/18 03:20:32;;;;;;;6.20;4.35;;;;;;;0.74;82.88;98676.34;4993752;28;20050;-61
2024/02/18 03:22:58;;;;;;;9.02;4.60;;;;;;;0.79;82.01;98671.34;5008734;28;20081;-61
2024/02/18 03:25:23;;;;;;;10.82;4.15;;;;;;;0.73;81.88;98666.09;4992453;28;20499;-61
2024/02/18 03:27:49;;;;;;;6.43;4.25;;;;;;;0.72;83.05;98665.28;4992300;28;20046;-60
2024/02/18 03:30:15;;;;;;;4.85;3.63;;;;;;;0.72;82.94;98667.88;4992499;28;20126;-62
2024/02/18 03:32:41;;;;;;;6.13;4.05;;;;;;;0.71;82.88;98662.84;4993339;28;20173;-61
2024/02/18 03:35:07;;;;;;;5.82;3.97;;;;;;;0.76;83.33;98663.88;4993430;28;20042;-62
2024/02/18 03:37:33;;;;;;;6.95;4.57;;;;;;;0.86;83.69;98672.19;4992035;28;20053;-60
2024/02/18 03:39:59;;;;;;;6.93;4.45;;;;;;;0.92;83.01;98668.00;4992105;28;20038;-61
2024/02/18 03:42:25;;;;;;;5.95;4.10;;;;;;;0.88;81.88;98678.03;4992643;28;20480;-61
2024/02/18 03:44:50;;;;;;;6.88;4.32;;;;;;;0.84;82.36;98671.56;4991943;28;20035;-62
2024/02/18 03:47:23;;;;;;;7.03;3.83;;;;;;;0.92;82.76;98675.84;4993245;28;20076;-61
2024/02/18 03:49:49;;;;;;;7.95;4.20;;;;;;;0.93;82.08;98667.00;4993153;28;20153;-61
2024/02/18 03:52:15;;;;;;;6.15;3.58;;;;;;;1.02;83.35;98668.47;4991674;28;20520;-61
2024/02/18 03:54:40;;;;;;;5.25;3.80;;;;;;;0.89;82.25;98663.97;4993091;28;20125;-62
2024/02/18 03:57:06;;;;;;;5.72;3.78;;;;;;;0.92;82.29;98675.03;4991626;28;20404;-61
2024/02/18 03:59:32;;;;;;;12.02;4.20;;;;;;;0.92;82.88;98672.44;5008412;28;20391;-62
2024/02/18 04:01:57;;;;;;;8.35;4.38;;;;;;;0.93;82.99;98671.44;4992772;28;20042;-61
2024/02/18 04:04:23;;;;;;;7.50;4.20;;;;;;;1.04;83.02;98676.91;4991690;28;20527;-63
2024/02/18 04:06:49;;;;;;;7.03;3.40;;;;;;;1.09;82.69;98690.19;4992627;28;20049;-61
2024/02/18 04:09:16;;;;;;;6.18;3.75;;;;;;;1.01;82.60;98684.31;4992531;28;20050;-60
2024/02/18 04:11:41;;;;;;;6.47;4.00;;;;;;;0.95;82.64;98677.25;4992624;28;20054;-62
2024/02/18 04:14:07;;;;;;;6.30;3.53;;;;;;;1.03;82.96;98695.34;4991508;28;20109;-62
2024/02/18 04:16:33;;;;;;;7.82;4.28;;;;;;;1.06;83.07;98687.97;4992542;28;20046;-62
2024/02/18 04:18:58;;;;;;;6.00;3.70;;;;;;;1.09;83.02;98700.63;4991150;28;20059;-60
2024/02/18 04:21:24;;;;;;;6.95;4.20;;;;;;;1.10;83.34;98691.78;4992581;28;20141;-63
2024/02/18 04:23:49;;;;;;;7.85;4.28;;;;;;;1.11;83.05;98700.41;4991357;28;20078;-60
2024/02/18 04:26:15;;;;;;;7.13;4.28;;;;;;;1.08;83.06;98696.38;4991290;28;20039;-63
2024/02/18 04:28:41;;;;;;;6.25;4.10;;;;;;;1.10;82.77;98707.44;4992334;28;20046;-60
2024/02/18 04:31:06;;;;;;;6.57;3.80;;;;;;;1.18;83.06;98706.50;4992262;28;20042;-61
2024/02/18 04:33:32;;;;;;;6.53;3.60;;;;;;;1.16;82.84;98716.31;4992263;28;20050;-61
2024/02/18 04:35:58;;;;;;;6.63;4.03;;;;;;;1.17;83.64;98714.50;4992271;28;20034;-61
2024/02/18 04:38:24;;;;;;;5.78;3.83;;;;;;;1.18;83.39;98726.56;4992562;28;20134;-60
2024/02/18 04:40:49;;;;;;;5.45;3.40;;;;;;;1.15;83.52;98725.16;4991058;28;20042;-62
2024/02/18 04:43:16;;;;;;;4.88;3.28;;;;;;;1.20;83.98;98724.56;4992389;28;20046;-60
2024/02/18 04:45:43;;;;;;;5.70;3.28;;;;;;;1.30;84.53;98730.25;4992005;28;20092;-61
2024/02/18 04:48:09;;;;;;;6.60;3.40;;;;;;;1.23;83.46;98726.78;4990613;28;20059;-60
2024/02/18 04:50:34;;;;;;;6.10;3.03;;;;;;;1.27;83.14;98738.47;4991813;28;20034;-62
2024/02/18 04:53:00;;;;;;;7.40;3.30;;;;;;;1.31;83.78;98737.09;4991749;28;20188;-60
2024/02/18 04:55:26;;;;;;;2.72;2.28;;;;;;;1.34;83.68;98740.09;5007109;28;20042;-62
2024/02/18 04:57:51;;;;;;;5.57;2.53;;;;;;;1.32;83.58;98755.19;4991556;28;20060;-60
2024/02/18 05:00:17;;;;;;;5.43;2.97;;;;;;;1.34;83.28;98754.97;5007023;28;20423;-63
2024/02/18 05:02:44;;;;;;;2.97;2.30;;;;;;;1.34;83.59;98754.97;4990584;28;20501;-60
2024/02/18 05:05:10;;;;;;;4.07;2.80;;;;;;;1.27;82.77;98751.53;4990437;28;20431;-62
2024/02/18 05:07:36;;;;;;;5.28;2.83;;;;;;;1.22;83.30;98762.53;4991766;28;20042;-60
2024/02/18 05:10:03;;;;;;;7.30;3.28;;;;;;;1.11;83.66;98755.25;4983598;28;20102;-60
2024/02/18 05:12:29;;;;;;;6.00;3.83;;;;;;;1.10;84.05;98769.31;4981695;28;20092;-61
2024/02/18 05:14:55;;;;;;;4.85;3.35;;;;;;;1.09;84.06;98765.88;5001762;28;20038;-61
2024/02/18 05:17:21;;;;;;;6.00;3.70;;;;;;;1.16;84.40;98773.75;4992589;28;20295;-61
2024/02/18 05:19:47;;;;;;;6.05;3.05;;;;;;;1.01;83.14;98773.06;4992303;28;20121;-61
2024/02/18 05:22:13;;;;;;;4.60;2.85;;;;;;;1.12;82.98;98786.38;4991847;28;20046;-60
2024/02/18 05:24:39;;;;;;;6.03;2.90;;;;;;;1.12;83.09;98782.97;4991922;28;20038;-61
2024/02/18 05:27:04;;;;;;;4.95;3.10;;;;;;;1.14;82.39;98783.56;4992029;28;20053;-60
2024/02/18 05:29:30;;;;;;;6.13;3.30;;;;;;;1.10;82.76;98784.97;4992086;28;20046;-63
2024/02/18 05:31:55;;;;;;;6.78;3.95;;;;;;;1.17;81.73;98792.81;4991814;28;20042;-60
2024/02/18 05:34:21;;;;;;;4.70;2.92;;;;;;;1.05;81.12;98795.97;4990770;28;20069;-61
2024/02/18 05:36:47;;;;;;;7.38;3.17;;;;;;;0.94;82.06;98798.28;4990285;28;20156;-60
2024/02/18 05:39:13;;;;;;;4.05;2.83;;;;;;;0.98;81.58;98799.53;4990437;28;20034;-61
2024/02/18 05:41:40;;;;;;;11.45;5.65;;;;;;;1.03;81.60;98805.81;4990561;28;20042;-62
2024/02/18 05:44:06;;;;;;;3.97;2.42;;;;;;;1.04;81.34;98811.81;4992060;28;20492;-60
2024/02/18 05:46:32;;;;;;;3.90;3.20;;;;;;;0.92;81.83;98816.75;4974201;28;20054;-62
2024/02/18 05:48:57;;;;;;;3.20;2.90;;;;;;;1.05;81.44;98826.47;4991923;28;20121;-60
2024/02/18 05:51:23;;;;;;;4.97;3.05;;;;;;;0.97;81.71;98817.00;4991753;28;20579;-62
2024/02/18 05:53:49;;;;;;;3.10;2.13;;;;;;;0.96;80.84;98825.00;4991777;28;20500;-60
2024/02/18 05:56:14;;;;;;;5.32;3.00;;;;;;;0.83;81.30;98829.13;4990028;28;20073;-61
2024/02/18 05:58:40;;;;;;;1.90;1.70;;;;;;;0.79;81.22;98827.06;4990208;28;20487;-59
2024/02/18 06:01:06;;;;;;;4.45;2.35;;;;;;;0.72;80.96;98824.41;4990119;28;20082;-60
2024/02/18 06:03:31;;;;;;;2.10;1.85;;;;;;;0.76;80.75;98828.25;4991522;28;20057;-57
2024/02/18 06:05:57;;;;;;;2.80;1.95;;;;;;;0.84;80.27;98828.13;4991973;28;20042;-63
2024/02/18 06:08:26;;;;;;;4.05;2.70;;;;;;;0.93;79.32;98834.00;4995184;28;20400;-60
2024/02/18 06:10:52;;;;;;;3.50;2.50;;;;;;;1.06;79.11;98841.97;4995018;28;20175;-61
2024/02/18 06:13:18;;;;;;;2.58;2.38;;;;;;;1.09;78.72;98841.59;4995097;28;20062;-61
2024/02/18 06:15:43;;;;;;;1.52;1.42;;;;;;;1.05;77.50;98844.75;4993474;28;20076;-61
2024/02/18 06:18:10;;;;;;;5.43;3.60;;;;;;;1.07;77.63;98854.00;4993793;28;20062;-62
2024/02/18 06:20:36;;;;;;;5.22;3.85;;;;;;;1.20;77.09;98850.69;4994713;28;20138;-62
2024/02/18 06:23:02;;;;;;;3.95;2.83;;;;;;;1.30;76.67;98860.81;4995102;28;20137;-59
2024/02/18 06:25:35;;;;;;;3.92;2.78;;;;;;;1.21;76.47;98848.91;4993587;28;20042;-61
2024/02/18 06:28:05;;;;;;;4.60;3.58;;;;;;;1.35;76.04;98861.03;4994883;28;20058;-60
2024/02/18 06:30:31;;;;;;;3.05;2.45;;;;;;;1.29;77.09;98872.22;4993847;28;20165;-60
2024/02/18 06:32:56;;;;;;;1.92;1.70;;;;;;;1.18;77.88;98864.91;4994752;28;20452;-61
2024/02/18 06:35:22;;;;;;;7.78;3.78;;;;;;;1.16;78.92;98870.34;4994758;28;20077;-63
2024/02/18 06:37:47;;;;;;;7.50;4.57;;;;;;;1.11;80.14;98870.91;4994658;28;20444;-62
2024/02/18 06:40:13;;;;;;;2.65;1.90;;;;;;;1.03;81.57;98880.66;4994727;28;20042;-61
2024/02/18 06:42:39;;;;;;;3.60;2.90;;;;;;;0.95;82.56;98878.22;4994505;28;20485;-62
2024/02/18 06:45:04;;;;;;;4.90;3.30;;;;;;;0.88;83.00;98881.56;4994388;28;20125;-62
2024/02/18 06:47:31;;;;;;;6.78;4.45;;;;;;;1.01;83.09;98885.28;4994290;28;20053;-60
2024/02/18 06:49:57;;;;;;;8.00;4.40;;;;;;;1.10;81.60;98890.19;5009284;28;20074;-60
2024/02/18 06:52:23;;;;;;;4.78;3.50;;;;;;;0.86;79.99;98860.06;4994149;28;20409;-60
2024/02/18 06:54:48;;;;;;;4.10;3.28;;;;;;;1.21;79.37;98891.47;4994220;28;20173;-61
2024/02/18 06:57:14;;;;;;;5.53;2.70;;;;;;;1.27;78.01;98901.16;4994074;28;20416;-61
2024/02/18 06:59:40;;;;;;;6.88;3.67;;;;;;;1.43;77.35;98900.06;4994360;28;20046;-59
2024/02/18 07:02:06;;;;;;;9.07;4.53;;;;;;;1.39;77.36;98898.84;4993787;28;20531;-60
2024/02/18 07:04:31;;;;;;;7.20;3.92;;;;;;;1.37;77.05;98900.81;4999999;28;20083;-61
2024/02/18 07:06:57;;;;;;;7.70;4.78;;;;;;;1.38;76.64;98899.81;4974333;28;20042;-60
2024/02/18 07:09:23;;;;;;;5.18;3.75;;;;;;;1.32;77.35;98903.19;4988711;28;20529;-61
2024/02/18 07:11:49;;;;;;;3.63;2.38;;;;;;;1.30;77.71;98910.44;4975922;28;20038;-61
2024/02/18 07:14:14;;;;;;;6.82;2.70;;;;;;;1.36;78.77;98920.13;4993719;28;20050;-61
2024/02/18 07:16:40;;;;;;;4.65;2.65;;;;;;;1.36;77.70;98925.34;4993047;28;20038;-62
2024/02/18 07:19:07;;;;;;;5.18;3.28;;;;;;;1.29;75.96;98917.44;4992112;28;20078;-61
2024/02/18 07:21:33;;;;;;;2.35;2.00;;;;;;;1.20;77.09;98921.16;4990485;28;20967;-61
2024/02/18 07:23:58;;;;;;;2.92;1.95;;;;;;;1.14;78.22;98929.75;4993085;28;20130;-60
2024/02/18 07:26:24;;;;;;;2.95;2.13;;;;;;;0.97;78.62;98924.00;4992135;28;20112;-63
2024/02/18 07:28:50;;;;;;;4.18;2.30;;;;;;;1.08;77.56;98938.34;4991745;28;20500;-62
2024/02/18 07:31:17;;;;;;;3.05;2.13;;;;;;;1.14;77.17;98930.56;5008302;28;20407;-61
2024/02/18 07:33:42;;;;;;;3.38;2.30;;;;;;;1.09;76.05;98937.38;4992872;28;20056;-62
2024/02/18 07:36:11;;;;;;;2.00;1.80;;;;;;;0.99;75.48;98942.88;4992771;28;20046;-60
2024/02/18 07:38:37;;;;;;;2.90;2.08;;;;;;;1.08;75.71;98946.97;4993211;28;20054;-61
2024/02/18 07:41:04;;;;;;;2.97;2.20;;;;;;;1.05;74.79;98964.81;4993027;28;20050;-61
2024/02/18 07:43:31;;;;;;;2.50;1.92;;;;;;;0.90;74.66;98954.44;4993155;28;20050;-61
2024/02/18 07:45:56;;;;;;;1.77;1.63;;;;;;;0.81;72.23;98965.97;4991416;28;20049;-60
2024/02/18 07:48:22;;;;;;;2.70;1.88;;;;;;;0.68;72.90;98980.50;4993093;28;20061;-60
2024/02/18 07:50:48;;;;;;;6.10;2.15;;;;;;;0.59;71.98;98970.34;4992158;28;20034;-63
2024/02/18 07:53:13;;;;;;;5.30;2.20;;;;;;;0.59;71.79;98973.78;4975079;28;20607;-61
2024/02/18 07:55:39;;;;;;;2.75;2.47;;;;;;;0.70;71.43;98980.31;4975300;28;20085;-61
2024/02/18 07:58:04;;;;;;;2.55;2.05;;;;;;;0.74;70.89;98996.41;4992852;28;20049;-60
2024/02/18 08:00:30;;;;;;;4.30;3.83;;;;;;;0.96;71.80;98987.63;4992658;28;20038;-61
2024/02/18 08:02:56;;;;;;;7.45;4.80;;;;;;;0.98;70.60;98977.81;5008106;28;20093;-60
2024/02/18 08:05:21;;;;;;;3.10;2.67;;;;;;;0.98;71.26;98971.78;4990796;28;20049;-64
2024/02/18 08:07:47;;;;;;;5.78;4.72;;;;;;;1.16;71.59;98979.19;4992500;28;20038;-61
2024/02/18 08:10:12;;;;;;;6.40;3.70;;;;;;;1.16;71.73;98987.03;4992347;28;20061;-62
2024/02/18 08:12:38;;;;;;;4.35;3.22;;;;;;;1.36;72.79;98995.84;4992415;28;20078;-61
2024/02/18 08:15:05;;;;;;;2.88;2.40;;;;;;;1.45;72.15;99005.16;4991168;28;20042;-62
2024/02/18 08:17:30;;;;;;;5.53;2.53;;;;;;;1.49;72.24;98995.16;4991345;28;20053;-62
2024/02/18 08:19:56;;;;;;;4.65;3.08;;;;;;;1.51;71.63;98999.19;4990403;28;20039;-62
2024/02/18 08:22:23;;;;;;;3.38;2.38;;;;;;;1.36;68.54;99011.50;4992088;28;20054;-60
2024/02/18 08:24:49;;;;;;;2.78;2.38;;;;;;;1.41;67.12;99008.31;4992063;28;20042;-60
2024/02/18 08:27:15;;;;;;;3.50;2.45;;;;;;;1.52;67.46;99019.06;4991968;28;20104;-62
2024/02/18 08:29:44;;;;;;;3.95;2.20;;;;;;;1.54;68.44;99014.47;4990919;28;20038;-64
2024/02/18 08:32:09;;;;;;;2.13;1.48;;;;;;;1.46;66.73;99009.38;4990756;28;20054;-61
2024/02/18 08:34:35;;;;;;;5.97;3.25;;;;;;;1.55;66.38;99023.94;4991491;28;20034;-62
2024/02/18 08:37:01;;;;;;;4.50;3.22;;;;;;;1.62;64.89;99018.78;4990870;28;20060;-62
2024/02/18 08:39:26;;;;;;;6.53;3.38;;;;;;;1.80;65.08;99021.72;4991829;28;20049;-65
2024/02/18 08:41:52;;;;;;;3.65;2.50;;;;;;;1.98;63.84;99016.03;4990764;28;20038;-60
2024/02/18 08:44:19;;;;;;;7.28;2.40;;;;;;;2.14;63.79;99024.56;4974755;28;20045;-62
2024/02/18 08:46:47;;;;;;;3.35;2.60;;;;;;;2.33;63.03;99039.59;4988972;28;20050;-61
2024/02/18 08:49:13;;;;;;;3.90;2.47;;;;;;;2.27;62.81;99024.66;4990251;28;20077;-61
2024/02/18 08:51:39;;;;;;;2.63;2.05;;;;;;;2.25;62.66;99029.28;4990205;28;20042;-60
2024/02/18 08:54:11;;;;;;;6.10;4.55;;;;;;;2.40;62.07;99026.53;4989738;28;20057;-61
2024/02/18 08:56:36;;;;;;;3.53;2.72;;;;;;;2.50;61.28;99032.25;4989756;28;20038;-62
2024/02/18 08:59:02;;;;;;;2.40;1.85;;;;;;;2.55;61.08;99035.06;4990160;28;20065;-61
2024/02/18 09:01:28;;;;;;;2.15;1.70;;;;;;;2.35;60.63;99031.53;4991600;28;20042;-60
2024/02/18 09:03:53;;;;;;;2.15;1.70;;;;;;;2.36;60.85;99039.19;4990802;28;20046;-61
2024/02/18 09:06:19;;;;;;;6.90;3.92;;;;;;;2.23;62.03;99029.44;4990517;28;20084;-62
2024/02/18 09:08:45;;;;;;;2.97;2.30;;;;;;;2.30;62.00;99039.16;4991946;28;20038;-61
2024/02/18 09:11:10;;;;;;;4.20;2.50;;;;;;;2.54;62.33;99037.88;4991790;28;20054;-61
2024/02/18 09:13:36;;;;;;;2.40;2.20;;;;;;;2.47;61.85;99037.84;4990551;28;20058;-61
2024/02/18 09:16:02;;;;;;;2.63;1.95;;;;;;;2.67;61.28;99051.81;4991872;28;20057;-61
2024/02/18 09:18:27;;;;;;;5.55;2.08;;;;;;;2.61;60.57;99038.72;4992134;28;20061;-62
2024/02/18 09:20:53;;;;;;;2.10;1.70;;;;;;;2.63;59.53;99049.81;4990547;28;20104;-62
2024/02/18 09:23:19;;;;;;;2.33;1.50;;;;;;;2.63;58.88;99050.59;4992128;28;20049;-60
2024/02/18 09:25:44;;;;;;;3.15;1.75;;;;;;;2.55;59.05;99049.97;4991817;28;20169;-60
2024/02/18 09:28:10;;;;;;;2.33;1.60;;;;;;;2.67;58.75;99053.63;4992072;28;20047;-62
2024/02/18 09:30:36;;;;;;;1.92;1.60;;;;;;;2.61;57.96;99049.97;4991690;28;20528;-62
2024/02/18 09:33:04;;;;;;;1.98;1.70;;;;;;;2.56;58.60;99051.56;4974329;28;20062;-60
2024/02/18 09:35:30;;;;;;;1.70;1.60;;;;;;;2.53;59.27;99049.34;4991695;28;20057;-61
2024/02/18 09:37:56;;;;;;;2.92;2.20;;;;;;;2.62;59.29;99064.72;4990347;28;20042;-61
2024/02/18 09:40:22;;;;;;;3.35;2.50;;;;;;;2.69;58.97;99057.69;4991522;28;20428;-61
2024/02/18 09:42:50;;;;;;;2.63;2.10;;;;;;;2.55;58.45;99071.69;4995535;28;20050;-61
2024/02/18 09:45:16;;;;;;;2.30;1.80;;;;;;;2.52;57.42;99071.28;4994447;28;20042;-61
2024/02/18 09:47:43;;;;;;;1.60;1.50;;;;;;;2.44;57.50;99067.84;4993943;28;20072;-60
2024/02/18 09:50:10;;;;;;;3.75;1.75;;;;;;;2.61;59.33;99075.34;4995213;28;20136;-60
2024/02/18 09:52:38;;;;;;;2.22;2.00;;;;;;;2.58;58.10;99075.75;4995327;28;20058;-62
2024/02/18 09:55:06;;;;;;;2.22;1.80;;;;;;;2.32;59.16;99082.41;4995210;28;20045;-61
2024/02/18 09:57:32;;;;;;;2.22;1.88;;;;;;;2.11;59.94;99075.44;4993874;28;20526;-61
2024/02/18 09:59:58;;;;;;;4.70;3.40;;;;;;;2.10;60.70;99084.28;4993687;28;20043;-61
2024/02/18 10:02:24;;;;;;;3.05;2.75;;;;;;;2.17;60.48;99094.78;4993846;28;20042;-62
2024/02/18 10:04:49;;;;;;;4.70;2.60;;;;;;;2.09;60.58;99082.69;4994045;28;20046;-62
2024/02/18 10:07:16;;;;;;;3.40;2.55;;;;;;;2.16;60.06;99090.56;4993569;28;20424;-61
2024/02/18 10:09:43;;;;;;;3.10;2.40;;;;;;;2.21;61.51;99078.53;4994865;28;20531;-61
2024/02/18 10:12:13;;;;;;;4.80;2.63;;;;;;;2.20;65.12;99100.44;4993322;28;20046;-61
2024/02/18 10:14:38;;;;;;;3.13;2.72;;;;;;;1.88;68.72;99099.19;4993846;28;20035;-60
2024/02/18 10:17:04;;;;;;;6.35;4.25;;;;;;;1.72;69.84;99099.44;4993803;28;20451;-61
2024/02/18 10:19:29;;;;;;;11.98;6.13;;;;;;;1.53;70.29;99114.75;4993556;28;20038;-62
2024/02/18 10:21:57;;;;;;;9.60;5.60;;;;;;;1.36;72.30;99113.38;4993276;28;20551;-61
2024/02/18 10:24:26;;;;;;;8.98;5.25;;;;;;;1.35;71.68;99112.56;4994899;28;20050;-61
2024/02/18 10:26:55;;;;;;;10.93;5.25;;;;;;;1.49;72.24;99116.09;4993293;28;20504;-61
2024/02/18 10:29:21;;;;;;;9.43;5.50;;;;;;;1.71;70.65;99113.53;4994577;28;20535;-60
2024/02/18 10:31:47;;;;;;;8.25;5.05;;;;;;;1.92;71.22;99113.50;4994262;28;20046;-59
2024/02/18 10:34:12;;;;;;;4.55;2.42;;;;;;;1.84;68.53;99116.25;4993319;28;20038;-63
2024/02/18 10:36:43;;;;;;;4.00;3.17;;;;;;;1.90;68.88;99109.47;4993476;28;20416;-62
2024/02/18 10:39:12;;;;;;;;;;;;;;;1.94;68.89;99114.13;4993683;28;20077;-59
2024/02/18 10:41:40;;;;;;;7.93;2.60;;;;;;;1.76;68.04;99118.97;5009787;28;19926;-60
2024/02/18 10:44:16;;;;;;;5.00;2.85;;;;;;;1.70;68.18;99120.53;4977172;28;20054;-60
2024/02/18 10:46:43;;;;;;;12.18;6.22;;;;;;;1.68;67.70;99122.53;4994413;28;20049;-60
2024/02/18 10:49:27;;;;;;;4.07;2.50;;;;;;;1.82;65.58;99123.47;4993386;28;20085;-61
2024/02/18 10:52:02;;;;;;;2.85;2.38;;;;;;;2.03;64.61;99126.06;4960539;28;20045;-60
2024/02/18 10:54:37;;;;;;;4.32;2.72;;;;;;;2.01;63.34;99140.34;4994326;28;20053;-60
2024/02/18 10:57:03;;;;;;;3.92;2.53;;;;;;;1.92;62.78;99134.41;4994297;28;20050;-60
2024/02/18 10:59:35;;;;;;;5.47;3.08;;;;;;;2.05;62.01;99131.09;5009194;28;20039;-61
2024/02/18 11:02:17;;;;;;;2.33;1.75;;;;;;;2.12;61.26;99136.38;4993058;28;20038;-60
2024/02/18 11:04:43;;;;;;;9.60;5.22;;;;;;;2.09;61.94;99136.75;4994211;28;20069;-60
2024/02/18 11:07:10;;;;;;;6.57;3.40;;;;;;;2.18;62.04;99136.47;4976456;28;20116;-59
2024/02/18 11:09:36;;;;;;;4.38;2.92;;;;;;;2.18;61.02;99133.84;4992408;28;20145;-61
2024/02/18 11:12:02;;;;;;;8.45;4.38;;;;;;;2.23;61.42;99139.28;4992666;28;20051;-63
2024/02/18 11:14:28;;;;;;;4.38;2.97;;;;;;;2.32;60.22;99142.56;4992718;28;20042;-61
2024/02/18 11:16:55;;;;;;;4.90;3.03;;;;;;;2.26;59.91;99132.88;4992410;28;20038;-61
2024/02/18 11:19:21;;;;;;;3.13;2.00;;;;;;;2.14;58.98;99144.84;4993332;28;20538;-62
2024/02/18 11:21:50;;;;;;;2.40;1.77;;;;;;;1.90;59.34;99149.47;4993344;28;20053;-61
2024/02/18 11:24:16;;;;;;;4.68;3.25;;;;;;;2.00;60.32;99143.91;4993626;28;20505;-61
2024/02/18 11:26:41;;;;;;;5.45;3.70;;;;;;;2.14;59.90;99145.66;4993541;28;20054;-62
2024/02/18 11:29:07;;;;;;;3.28;2.60;;;;;;;2.06;59.22;99143.19;5008522;28;20050;-61
2024/02/18 11:31:33;;;;;;;2.83;1.75;;;;;;;1.97;59.48;99146.91;4993336;28;20517;-61
2024/02/18 11:33:58;;;;;;;2.80;2.47;;;;;;;2.01;60.71;99153.41;4992258;28;20096;-62